createdAt,value
2018-02-04T00:00:35.087Z,49.32
2018-02-04T00:01:35.089Z,49.49
2018-02-04T00:02:35.103Z,49.63
2018-02-04T00:03:35.129Z,48.94
2018-02-04T00:04:35.095Z,49.67
2018-02-04T00:05:35.092Z,49.28
2018-02-04T00:06:35.091Z,49.76
2018-02-04T00:07:35.096Z,49.29
2018-02-04T00:08:35.093Z,49.55
2018-02-04T00:09:35.128Z,50.05
2018-02-04T00:10:35.236Z,50.22
2018-02-04T00:11:35.200Z,49.79
2018-02-04T00:12:35.452Z,49.9
2018-02-04T00:13:35.095Z,50.19
2018-02-04T00:14:35.103Z,50.09
2018-02-04T00:15:38.662Z,49.67
2018-02-04T00:16:35.103Z,49.98
2018-02-04T00:17:35.100Z,50.49
2018-02-04T00:18:35.104Z,50.5
2018-02-04T00:19:35.105Z,50.29
2018-02-04T00:20:35.106Z,50.21
2018-02-04T00:21:35.137Z,50.28
2018-02-04T00:22:35.107Z,50.43
2018-02-04T00:23:35.134Z,50.96
2018-02-04T00:24:35.342Z,50.62
2018-02-04T00:25:35.328Z,50.43
2018-02-04T00:26:35.108Z,50.32
2018-02-04T00:27:35.144Z,50.81
2018-02-04T00:28:35.301Z,50.53
2018-02-04T00:29:35.728Z,50.95
2018-02-04T00:30:35.116Z,50.89
2018-02-04T00:31:35.516Z,51.09
2018-02-04T00:32:35.115Z,50.64
2018-02-04T00:33:35.898Z,50.73
2018-02-04T00:34:35.115Z,50.59
2018-02-04T00:35:35.421Z,50.75
2018-02-04T00:36:35.647Z,50.91
2018-02-04T00:37:35.488Z,51.32
2018-02-04T00:38:35.126Z,50.95
2018-02-04T00:39:35.418Z,51.27
2018-02-04T00:40:35.404Z,51.22
2018-02-04T00:41:35.121Z,51.07
2018-02-04T00:42:35.234Z,51.31
2018-02-04T00:43:35.127Z,51.23
2018-02-04T00:44:35.370Z,51.48
2018-02-04T00:45:36.195Z,51.6
2018-02-04T00:46:35.129Z,51.12
2018-02-04T00:47:35.124Z,51.2
2018-02-04T00:48:35.131Z,51.37
2018-02-04T00:49:35.169Z,51.33
2018-02-04T00:50:35.127Z,51.27
2018-02-04T00:51:35.172Z,51.68
2018-02-04T00:52:35.135Z,51.12
2018-02-04T00:53:35.134Z,51.24
2018-02-04T00:54:35.132Z,51.18
2018-02-04T00:55:35.258Z,51.41
2018-02-04T00:56:35.134Z,51.41
2018-02-04T00:57:35.344Z,51.71
2018-02-04T00:58:35.137Z,51.28
2018-02-04T00:59:35.487Z,51.44
2018-02-04T01:00:35.140Z,51.19
2018-02-04T01:01:35.136Z,51.69
2018-02-04T01:02:35.186Z,50.92
2018-02-04T01:03:35.261Z,51.37
2018-02-04T01:04:35.140Z,51.61
2018-02-04T01:05:35.142Z,51.14
2018-02-04T01:06:35.144Z,51.16
2018-02-04T01:07:35.312Z,51.55
2018-02-04T01:08:35.221Z,51.01
2018-02-04T01:09:35.171Z,51.24
2018-02-04T01:10:36.158Z,51.37
2018-02-04T01:11:35.292Z,51.12
2018-02-04T01:12:35.242Z,51.44
2018-02-04T01:13:35.480Z,51.41
2018-02-04T01:14:35.459Z,51.09
2018-02-04T01:15:35.150Z,51.14
2018-02-04T01:16:35.587Z,51.11
2018-02-04T01:17:35.164Z,51.27
2018-02-04T01:18:35.151Z,51.22
2018-02-04T01:19:35.152Z,51.55
2018-02-04T01:20:35.186Z,51.37
2018-02-04T01:21:35.155Z,51.39
2018-02-04T01:22:35.169Z,51.2
2018-02-04T01:23:35.159Z,51.59
2018-02-04T01:24:35.201Z,51.44
2018-02-04T01:25:35.175Z,51.08
2018-02-04T01:26:35.348Z,50.96
2018-02-04T01:27:35.155Z,51.62
2018-02-04T01:28:35.303Z,51.03
2018-02-04T01:29:35.604Z,51.58
2018-02-04T01:30:35.239Z,51.45
2018-02-04T01:31:35.162Z,51.2
2018-02-04T01:32:35.518Z,51.26
2018-02-04T01:33:35.166Z,51.39
2018-02-04T01:34:35.162Z,51.5
2018-02-04T01:35:35.346Z,51.46
2018-02-04T01:36:35.521Z,51.08
2018-02-04T01:37:35.171Z,51.57
2018-02-04T01:38:35.709Z,51.17
2018-02-04T01:39:35.307Z,51.52
2018-02-04T01:40:35.175Z,51.57
2018-02-04T01:41:35.173Z,51.37
2018-02-04T01:42:35.206Z,51.12
2018-02-04T01:43:35.169Z,51.08
2018-02-04T01:44:35.345Z,51.19
2018-02-04T01:45:35.181Z,51.18
2018-02-04T01:46:35.571Z,51.06
2018-02-04T01:47:35.285Z,51.44
2018-02-04T01:48:35.750Z,51.14
2018-02-04T01:49:35.389Z,51.1
2018-02-04T01:50:35.332Z,51.07
2018-02-04T01:51:35.179Z,51.08
2018-02-04T01:52:35.180Z,51.33
2018-02-04T01:53:35.180Z,51.18
2018-02-04T01:54:35.181Z,51.26
2018-02-04T01:55:35.186Z,51.17
2018-02-04T01:56:35.641Z,51.18
2018-02-04T01:57:35.186Z,51.17
2018-02-04T01:58:35.182Z,51.25
2018-02-04T01:59:35.226Z,51.54
2018-02-04T02:00:35.187Z,51.22
2018-02-04T02:01:35.187Z,51.58
2018-02-04T02:02:35.335Z,51.66
2018-02-04T02:03:35.700Z,51.3
2018-02-04T02:04:35.289Z,51.29
2018-02-04T02:05:35.188Z,51.43
2018-02-04T02:06:35.252Z,51.24
2018-02-04T02:07:35.191Z,51.5
2018-02-04T02:08:35.317Z,51.27
2018-02-04T02:09:35.196Z,51.58
2018-02-04T02:10:35.197Z,51.51
2018-02-04T02:11:35.428Z,51.29
2018-02-04T02:12:35.203Z,51.67
2018-02-04T02:13:35.380Z,51.41
2018-02-04T02:14:35.737Z,51.52
2018-02-04T02:15:35.198Z,51.61
2018-02-04T02:16:35.373Z,51.6
2018-02-04T02:17:35.255Z,51.21
2018-02-04T02:18:35.199Z,51.41
2018-02-04T02:19:35.667Z,51.46
2018-02-04T02:20:35.436Z,51.52
2018-02-04T02:21:35.203Z,51.22
2018-02-04T02:22:35.205Z,51.16
2018-02-04T02:23:35.208Z,51.2
2018-02-04T02:24:35.289Z,51.65
2018-02-04T02:25:35.206Z,51.59
2018-02-04T02:26:35.642Z,51.64
2018-02-04T02:27:35.683Z,51.39
2018-02-04T02:28:35.514Z,51.49
2018-02-04T02:29:35.206Z,51.61
2018-02-04T02:30:35.261Z,51.35
2018-02-04T02:31:35.214Z,51.46
2018-02-04T02:32:35.255Z,51.51
2018-02-04T02:33:35.218Z,51.6
2018-02-04T02:34:35.214Z,51.75
2018-02-04T02:35:35.212Z,51.73
2018-02-04T02:36:35.215Z,51.53
2018-02-04T02:37:35.222Z,51.49
2018-02-04T02:38:35.259Z,51.41
2018-02-04T02:39:35.218Z,51.71
2018-02-04T02:40:35.225Z,51.14
2018-02-04T02:41:35.217Z,51.15
2018-02-04T02:42:35.220Z,51.21
2018-02-04T02:43:35.218Z,51.62
2018-02-04T02:44:35.646Z,51.61
2018-02-04T02:45:35.223Z,51.75
2018-02-04T02:46:35.227Z,51.65
2018-02-04T02:47:35.226Z,51.26
2018-02-04T02:48:35.226Z,51.24
2018-02-04T02:49:35.236Z,51.18
2018-02-04T02:50:35.356Z,51.64
2018-02-04T02:51:35.225Z,51.5
2018-02-04T02:52:35.226Z,51.67
2018-02-04T02:53:35.232Z,51.37
2018-02-04T02:54:35.233Z,51.5
2018-02-04T02:55:35.231Z,51.27
2018-02-04T02:56:35.270Z,51.48
2018-02-04T02:57:35.232Z,51.16
2018-02-04T02:58:35.234Z,51.37
2018-02-04T02:59:35.239Z,51.46
2018-02-04T03:00:35.232Z,51.47
2018-02-04T03:01:35.235Z,51.1
2018-02-04T03:02:35.765Z,51.27
2018-02-04T03:03:35.235Z,51.33
2018-02-04T03:04:35.238Z,51.42
2018-02-04T03:05:35.242Z,51.15
2018-02-04T03:06:35.244Z,51.5
2018-02-04T03:07:35.248Z,51.11
2018-02-04T03:08:35.644Z,51.3
2018-02-04T03:09:35.244Z,51.12
2018-02-04T03:10:35.240Z,51.67
2018-02-04T03:11:35.242Z,51.41
2018-02-04T03:12:35.246Z,51.38
2018-02-04T03:13:35.246Z,50.92
2018-02-04T03:14:35.436Z,51.17
2018-02-04T03:15:35.245Z,51.04
2018-02-04T03:16:35.252Z,51.22
2018-02-04T03:17:35.247Z,51.16
2018-02-04T03:18:35.248Z,51.04
2018-02-04T03:19:35.299Z,50.99
2018-02-04T03:20:35.302Z,50.89
2018-02-04T03:21:35.250Z,51.35
2018-02-04T03:22:35.259Z,51.36
2018-02-04T03:23:35.251Z,50.96
2018-02-04T03:24:35.251Z,51.32
2018-02-04T03:25:35.254Z,51.09
2018-02-04T03:26:35.260Z,51.08
2018-02-04T03:27:35.259Z,51.06
2018-02-04T03:28:35.261Z,51.44
2018-02-04T03:29:35.260Z,51.51
2018-02-04T03:30:35.420Z,51.47
2018-02-04T03:31:35.632Z,51.53
2018-02-04T03:32:35.258Z,51.25
2018-02-04T03:33:35.261Z,51.7
2018-02-04T03:34:35.264Z,51.21
2018-02-04T03:35:35.263Z,51.13
2018-02-04T03:36:35.272Z,51.54
2018-02-04T03:37:35.424Z,51.65
2018-02-04T03:38:35.265Z,51.2
2018-02-04T03:39:35.267Z,51.51
2018-02-04T03:40:35.270Z,51.55
2018-02-04T03:41:35.269Z,51.23
2018-02-04T03:42:35.267Z,51.58
2018-02-04T03:43:35.311Z,51.57
2018-02-04T03:44:35.274Z,51.46
2018-02-04T03:45:35.270Z,51.62
2018-02-04T03:46:35.274Z,51.44
2018-02-04T03:47:35.274Z,51.55
2018-02-04T03:48:35.309Z,51.63
2018-02-04T03:49:35.302Z,51.34
2018-02-04T03:50:35.277Z,51.78
2018-02-04T03:51:35.274Z,51.51
2018-02-04T03:52:35.280Z,51.85
2018-02-04T03:53:35.276Z,51.58
2018-02-04T03:54:35.282Z,51.25
2018-02-04T03:55:35.615Z,51.26
2018-02-04T03:56:35.281Z,51.67
2018-02-04T03:57:35.281Z,51.64
2018-02-04T03:58:35.285Z,51.69
2018-02-04T03:59:35.280Z,51.25
2018-02-04T04:00:35.282Z,51.26
2018-02-04T04:01:35.330Z,51.39
2018-02-04T04:02:35.284Z,51.6
2018-02-04T04:03:35.286Z,51.94
2018-02-04T04:04:35.292Z,51.24
2018-02-04T04:05:35.288Z,51.79
2018-02-04T04:06:35.286Z,51.72
2018-02-04T04:07:35.335Z,51.33
2018-02-04T04:08:35.290Z,51.4
2018-02-04T04:09:35.299Z,51.75
2018-02-04T04:10:35.292Z,51.8
2018-02-04T04:11:35.289Z,51.75
2018-02-04T04:12:35.293Z,51.34
2018-02-04T04:13:35.326Z,51.73
2018-02-04T04:14:35.296Z,51.39
2018-02-04T04:15:35.292Z,51.3
2018-02-04T04:16:35.295Z,51.68
2018-02-04T04:17:35.297Z,51.37
2018-02-04T04:18:35.297Z,51.24
2018-02-04T04:19:35.335Z,51.33
2018-02-04T04:20:35.298Z,51.79
2018-02-04T04:21:35.300Z,51.36
2018-02-04T04:22:35.298Z,51.78
2018-02-04T04:23:35.304Z,51.36
2018-02-04T04:24:35.301Z,51.28
2018-02-04T04:25:35.337Z,51.4
2018-02-04T04:26:35.308Z,51.52
2018-02-04T04:27:35.314Z,51.34
2018-02-04T04:28:35.305Z,51.37
2018-02-04T04:29:35.307Z,51.83
2018-02-04T04:30:35.307Z,51.84
2018-02-04T04:31:35.354Z,51.32
2018-02-04T04:32:35.311Z,51.73
2018-02-04T04:33:35.310Z,51.52
2018-02-04T04:34:35.311Z,51.33
2018-02-04T04:35:35.308Z,51.58
2018-02-04T04:36:35.321Z,51.39
2018-02-04T04:37:35.668Z,51.72
2018-02-04T04:38:35.314Z,51.56
2018-02-04T04:39:35.319Z,51.44
2018-02-04T04:40:35.316Z,51.47
2018-02-04T04:41:35.314Z,51.66
2018-02-04T04:42:35.324Z,51.18
2018-02-04T04:43:35.526Z,51.5
2018-02-04T04:44:35.318Z,51.88
2018-02-04T04:45:35.318Z,51.56
2018-02-04T04:46:35.323Z,51.37
2018-02-04T04:47:35.323Z,51.39
2018-02-04T04:48:35.321Z,51.47
2018-02-04T04:49:35.525Z,51.34
2018-02-04T04:50:35.323Z,51.39
2018-02-04T04:51:35.335Z,51.6
2018-02-04T04:52:35.324Z,51.86
2018-02-04T04:53:35.326Z,51.5
2018-02-04T04:54:35.329Z,51.65
2018-02-04T04:55:35.358Z,51.63
2018-02-04T04:56:35.326Z,51.8
2018-02-04T04:57:35.336Z,51.46
2018-02-04T04:58:35.330Z,51.42
2018-02-04T04:59:35.332Z,51.92
2018-02-04T05:00:35.331Z,51.46
2018-02-04T05:01:35.736Z,51.41
2018-02-04T05:02:35.336Z,51.56
2018-02-04T05:03:35.336Z,51.38
2018-02-04T05:04:35.345Z,51.41
2018-02-04T05:05:35.335Z,51.49
2018-02-04T05:06:35.335Z,51.68
2018-02-04T05:07:35.387Z,51.82
2018-02-04T05:08:35.342Z,52.04
2018-02-04T05:09:35.337Z,51.83
2018-02-04T05:10:35.341Z,51.85
2018-02-04T05:11:35.348Z,51.5
2018-02-04T05:12:35.346Z,51.78
2018-02-04T05:13:35.384Z,51.66
2018-02-04T05:14:35.343Z,51.83
2018-02-04T05:15:35.346Z,51.86
2018-02-04T05:16:35.347Z,51.39
2018-02-04T05:17:35.345Z,51.61
2018-02-04T05:18:35.345Z,51.95
2018-02-04T05:19:35.398Z,51.54
2018-02-04T05:20:35.349Z,51.43
2018-02-04T05:21:35.349Z,51.96
2018-02-04T05:22:35.351Z,51.89
2018-02-04T05:23:35.350Z,51.79
2018-02-04T05:24:35.352Z,51.98
2018-02-04T05:25:35.882Z,52
2018-02-04T05:26:35.355Z,51.67
2018-02-04T05:27:35.355Z,51.71
2018-02-04T05:28:35.357Z,51.62
2018-02-04T05:29:35.362Z,51.98
2018-02-04T05:30:35.360Z,51.57
2018-02-04T05:31:35.530Z,51.6
2018-02-04T05:32:35.357Z,51.94
2018-02-04T05:33:35.361Z,52.02
2018-02-04T05:34:35.359Z,51.42
2018-02-04T05:35:35.363Z,52.11
2018-02-04T05:36:35.360Z,52.12
2018-02-04T05:37:35.401Z,51.62
2018-02-04T05:38:35.364Z,51.57
2018-02-04T05:39:35.363Z,51.87
2018-02-04T05:40:35.365Z,51.74
2018-02-04T05:41:35.364Z,52.19
2018-02-04T05:42:35.367Z,52.19
2018-02-04T05:43:35.737Z,51.74
2018-02-04T05:44:35.366Z,52.19
2018-02-04T05:45:35.376Z,52.14
2018-02-04T05:46:35.368Z,51.87
2018-02-04T05:47:35.369Z,51.66
2018-02-04T05:48:35.373Z,52.14
2018-02-04T05:49:36.190Z,52.06
2018-02-04T05:50:35.373Z,51.76
2018-02-04T05:51:35.376Z,52.22
2018-02-04T05:52:35.373Z,52.21
2018-02-04T05:53:35.376Z,51.93
2018-02-04T05:54:35.377Z,51.88
2018-02-04T05:55:35.410Z,52.15
2018-02-04T05:56:35.381Z,51.99
2018-02-04T05:57:35.381Z,52.2
2018-02-04T05:58:35.379Z,52.23
2018-02-04T05:59:35.382Z,52.08
2018-02-04T06:00:35.381Z,51.88
2018-02-04T06:01:35.536Z,51.91
2018-02-04T06:02:35.384Z,51.91
2018-02-04T06:03:35.383Z,52.34
2018-02-04T06:04:35.379Z,51.98
2018-02-04T06:05:35.384Z,51.98
2018-02-04T06:06:35.391Z,52.22
2018-02-04T06:07:35.537Z,52.37
2018-02-04T06:08:35.388Z,52.09
2018-02-04T06:09:35.386Z,52
2018-02-04T06:10:35.407Z,52.32
2018-02-04T06:11:35.394Z,52.31
2018-02-04T06:12:35.390Z,51.95
2018-02-04T06:13:35.388Z,52.08
2018-02-04T06:14:35.398Z,52.39
2018-02-04T06:15:35.396Z,51.97
2018-02-04T06:16:35.401Z,52.08
2018-02-04T06:17:35.395Z,52.31
2018-02-04T06:18:35.823Z,51.99
2018-02-04T06:19:35.476Z,52.49
2018-02-04T06:20:35.396Z,52.22
2018-02-04T06:21:35.400Z,52.98
2018-02-04T06:22:35.448Z,52.66
2018-02-04T06:23:35.399Z,52.84
2018-02-04T06:24:35.437Z,53.04
2018-02-04T06:25:35.400Z,52.6
2018-02-04T06:26:35.403Z,52.6
2018-02-04T06:27:35.400Z,53.23
2018-02-04T06:28:35.407Z,53.46
2018-02-04T06:29:35.400Z,53.16
2018-02-04T06:30:35.584Z,52.88
2018-02-04T06:31:35.408Z,52.6
2018-02-04T06:32:35.407Z,53.07
2018-02-04T06:33:35.407Z,52.69
2018-02-04T06:34:35.409Z,52.95
2018-02-04T06:35:35.419Z,52.83
2018-02-04T06:36:35.440Z,52.41
2018-02-04T06:37:35.406Z,52.7
2018-02-04T06:38:35.417Z,52.22
2018-02-04T06:39:35.432Z,52.23
2018-02-04T06:40:35.413Z,52.21
2018-02-04T06:41:35.413Z,52.05
2018-02-04T06:42:35.886Z,52.66
2018-02-04T06:43:35.418Z,52.41
2018-02-04T06:44:35.417Z,52.21
2018-02-04T06:45:35.421Z,52.24
2018-02-04T06:46:35.417Z,52.54
2018-02-04T06:47:35.468Z,52.1
2018-02-04T06:48:35.452Z,52.64
2018-02-04T06:49:35.425Z,52.17
2018-02-04T06:50:35.424Z,52.57
2018-02-04T06:51:35.428Z,52.28
2018-02-04T06:52:35.429Z,52.61
2018-02-04T06:53:35.482Z,52.46
2018-02-04T06:54:35.620Z,52.48
2018-02-04T06:55:35.425Z,52.13
2018-02-04T06:56:35.449Z,52.5
2018-02-04T06:57:35.427Z,53.15
2018-02-04T06:58:35.429Z,53.22
2018-02-04T06:59:35.430Z,53.63
2018-02-04T07:00:35.826Z,53.27
2018-02-04T07:01:35.433Z,53.61
2018-02-04T07:02:35.432Z,53.56
2018-02-04T07:03:35.437Z,53.24
2018-02-04T07:04:35.436Z,53.86
2018-02-04T07:05:35.432Z,55.09
2018-02-04T07:06:35.834Z,53.62
2018-02-04T07:07:35.442Z,53.36
2018-02-04T07:08:35.438Z,53.01
2018-02-04T07:09:35.499Z,52.95
2018-02-04T07:10:35.441Z,53.11
2018-02-04T07:11:35.444Z,52.9
2018-02-04T07:12:35.478Z,52.83
2018-02-04T07:13:35.440Z,55.66
2018-02-04T07:14:35.444Z,53.71
2018-02-04T07:15:35.441Z,53.56
2018-02-04T07:16:35.443Z,53.05
2018-02-04T07:17:35.453Z,52.63
2018-02-04T07:18:35.449Z,53.1
2018-02-04T07:19:35.442Z,52.63
2018-02-04T07:20:35.447Z,54.83
2018-02-04T07:21:35.473Z,54.13
2018-02-04T07:22:35.448Z,53.73
2018-02-04T07:23:35.488Z,54.13
2018-02-04T07:24:35.448Z,54.01
2018-02-04T07:25:35.449Z,53.24
2018-02-04T07:26:35.450Z,52.73
2018-02-04T07:27:35.453Z,52.87
2018-02-04T07:28:35.454Z,53.01
2018-02-04T07:29:35.810Z,52.36
2018-02-04T07:30:35.457Z,52.22
2018-02-04T07:31:35.457Z,52.35
2018-02-04T07:32:35.455Z,52.19
2018-02-04T07:33:35.456Z,52.54
2018-02-04T07:34:35.462Z,52.3
2018-02-04T07:35:35.496Z,52.12
2018-02-04T07:36:35.461Z,52.59
2018-02-04T07:37:35.460Z,52.16
2018-02-04T07:38:35.461Z,52.17
2018-02-04T07:39:35.461Z,52.93
2018-02-04T07:40:35.465Z,52.42
2018-02-04T07:41:35.506Z,52.38
2018-02-04T07:42:35.468Z,52.05
2018-02-04T07:43:35.464Z,52.47
2018-02-04T07:44:35.468Z,51.93
2018-02-04T07:45:35.470Z,52.85
2018-02-04T07:46:35.466Z,53.9
2018-02-04T07:47:35.512Z,52.56
2018-02-04T07:48:35.471Z,52.31
2018-02-04T07:49:35.473Z,52.08
2018-02-04T07:50:35.473Z,52.21
2018-02-04T07:51:35.469Z,53.4
2018-02-04T07:52:35.477Z,52.22
2018-02-04T07:53:35.507Z,51.83
2018-02-04T07:54:35.474Z,51.84
2018-02-04T07:55:35.475Z,52.19
2018-02-04T07:56:35.478Z,52.27
2018-02-04T07:57:35.484Z,52.23
2018-02-04T07:58:35.475Z,52.08
2018-02-04T17:25:18.886Z,52.91
2018-02-04T17:26:18.842Z,51.79
2018-02-04T17:27:18.834Z,50.78
2018-02-04T17:28:18.833Z,49.72
2018-02-04T17:29:18.833Z,49.45
2018-02-04T17:30:18.835Z,48.68
2018-02-04T17:31:18.882Z,48.33
2018-02-04T17:32:18.835Z,48.23
2018-02-04T17:33:18.837Z,48.4
2018-02-04T17:34:18.838Z,47.77
2018-02-04T17:35:18.840Z,47.79
2018-02-04T17:36:18.839Z,47.47
2018-02-04T17:37:18.866Z,47.37
2018-02-04T17:38:18.847Z,47.25
2018-02-04T17:39:18.844Z,46.8
2018-02-04T17:40:18.845Z,46.85
2018-02-04T17:41:18.842Z,46.82
2018-02-04T17:42:18.918Z,46.15
2018-02-04T17:43:18.897Z,46.22
2018-02-04T17:44:18.889Z,45.91
2018-02-04T17:45:18.850Z,46.32
2018-02-04T17:46:18.849Z,45.84
2018-02-04T17:47:18.898Z,45.97
2018-02-04T17:48:18.947Z,45.76
2018-02-04T17:49:18.966Z,45.63
2018-02-04T17:50:18.897Z,46.08
2018-02-04T17:51:18.885Z,45.92
2018-02-04T17:52:18.899Z,46.03
2018-02-04T17:53:19.051Z,45.32
2018-02-04T17:54:18.879Z,45.87
2018-02-04T17:55:18.904Z,45.97
2018-02-04T17:56:18.906Z,45.72
2018-02-04T17:57:18.895Z,45.57
2018-02-04T17:58:18.872Z,44.88
2018-02-04T17:59:18.941Z,45.59
2018-02-04T18:00:18.915Z,45.4
2018-02-04T18:01:18.910Z,45.58
2018-02-04T18:02:18.900Z,46.23
2018-02-04T18:03:18.915Z,46.19
2018-02-04T18:04:18.954Z,45.95
2018-02-04T18:05:18.915Z,46.11
2018-02-04T18:06:18.865Z,46.23
2018-02-04T18:07:18.902Z,45.69
2018-02-04T18:08:18.866Z,45.74
2018-02-04T18:09:18.867Z,46.07
2018-02-04T18:10:18.897Z,46
2018-02-04T18:11:18.867Z,45.65
2018-02-04T18:12:18.869Z,46.07
2018-02-04T18:13:18.916Z,45.76
2018-02-04T18:14:18.870Z,45.7
2018-02-04T18:15:18.903Z,45.76
2018-02-04T18:16:18.873Z,45.78
2018-02-04T18:17:18.882Z,45.65
2018-02-04T18:18:18.874Z,45.37
2018-02-04T18:19:18.978Z,45.77
2018-02-04T18:20:18.875Z,45.44
2018-02-04T18:21:18.908Z,45.29
2018-02-04T18:22:18.877Z,45.95
2018-02-04T18:23:18.879Z,46.26
2018-02-04T18:24:18.881Z,45.4
2018-02-04T18:25:18.884Z,45.57
2018-02-04T18:26:18.917Z,46.09
2018-02-04T18:27:18.882Z,46.05
2018-02-04T18:28:18.886Z,45.44
2018-02-04T18:29:18.886Z,48.95
2018-02-04T18:30:18.888Z,46.41
2018-02-04T18:31:18.886Z,45.68
2018-02-04T18:32:18.917Z,45.84
2018-02-04T18:33:18.887Z,45.89
2018-02-04T18:34:18.891Z,46.34
2018-02-04T18:35:18.924Z,51.36
2018-02-04T18:36:18.933Z,46.81
2018-02-04T18:37:19.096Z,46.83
2018-02-04T18:38:18.945Z,46.58
2018-02-04T18:39:18.931Z,45.79
2018-02-04T18:40:18.932Z,46.16
2018-02-04T18:41:18.934Z,45.81
2018-02-04T18:42:18.934Z,46.16
2018-02-04T18:43:18.926Z,45.76
2018-02-04T18:44:18.941Z,46.76
2018-02-04T18:45:18.950Z,45.93
2018-02-04T18:46:18.902Z,47.1
2018-02-04T18:47:18.947Z,46.24
2018-02-04T18:48:19.060Z,46.23
2018-02-04T18:49:18.905Z,45.68
2018-02-04T18:50:18.949Z,46.1
2018-02-04T18:51:18.947Z,45.65
2018-02-04T18:52:18.950Z,45.58
2018-02-04T18:53:18.952Z,46.26
2018-02-04T18:54:18.966Z,45.54
2018-02-04T18:55:18.907Z,45.95
2018-02-04T18:56:18.910Z,45.63
2018-02-04T18:57:18.907Z,45.71
2018-02-04T18:58:18.914Z,45.73
2018-02-04T18:59:18.980Z,45.83
2018-02-04T19:00:18.909Z,45.89
2018-02-04T19:01:18.911Z,47.49
2018-02-04T19:02:18.914Z,46.02
2018-02-04T19:03:18.920Z,45.94
2018-02-04T19:04:18.919Z,46.23
2018-02-04T19:05:18.941Z,45.82
2018-02-04T19:06:18.919Z,45.76
2018-02-04T19:07:18.955Z,45.91
2018-02-04T19:08:18.950Z,47.33
2018-02-04T19:09:18.930Z,46.27
2018-02-04T19:10:19.005Z,45.63
2018-02-04T19:11:18.971Z,45.66
2018-02-04T19:12:18.925Z,45.71
2018-02-04T19:13:18.952Z,46.1
2018-02-04T19:14:18.946Z,45.57
2018-02-04T19:15:18.973Z,45.67
2018-02-04T19:16:18.992Z,46.2
2018-02-04T19:17:18.971Z,46.14
2018-02-04T19:18:18.969Z,45.69
2018-02-04T19:19:18.978Z,45.38
2018-02-04T19:20:18.960Z,45.62
2018-02-04T19:21:19.013Z,45.99
2018-02-04T19:22:18.973Z,45.87
2018-02-04T19:23:18.975Z,45.47
2018-02-04T19:24:18.984Z,45.54
2018-02-04T19:25:18.973Z,45.75
2018-02-04T19:26:18.929Z,46.1
2018-02-04T19:27:18.964Z,45.67
2018-02-04T19:28:18.975Z,45.8
2018-02-04T19:29:18.935Z,46.14
2018-02-04T19:30:18.937Z,46.19
2018-02-04T19:31:18.938Z,46.32
2018-02-04T19:32:18.972Z,46.57
2018-02-04T19:33:18.941Z,46.23
2018-02-04T19:34:18.967Z,47.37
2018-02-04T19:35:18.943Z,46.25
2018-02-04T19:36:18.940Z,46.15
2018-02-04T19:37:18.943Z,45.66
2018-02-04T19:38:19.376Z,45.45
2018-02-04T19:39:18.959Z,45.02
2018-02-04T19:40:18.945Z,44.68
2018-02-04T19:41:18.974Z,44.52
2018-02-04T19:42:18.956Z,44.48
2018-02-04T19:43:18.944Z,44.78
2018-02-04T19:44:18.978Z,44.27
2018-02-04T19:45:19.230Z,44.63
2018-02-04T19:46:19.411Z,44.82
2018-02-04T19:47:18.948Z,44.79
2018-02-04T19:48:18.957Z,44.68
2018-02-04T19:49:19.167Z,44.69
2018-02-04T19:50:18.953Z,44.72
2018-02-04T19:51:18.954Z,44.39
2018-02-04T19:52:20.031Z,44.71
2018-02-04T19:53:18.962Z,44.45
2018-02-04T19:54:19.127Z,44.56
2018-02-04T19:55:19.036Z,44.44
2018-02-04T19:56:18.957Z,44.72
2018-02-04T19:57:18.974Z,44.66
2018-02-04T19:59:29.134Z,44.95
2018-02-04T20:00:29.127Z,45.02
2018-02-04T20:01:29.123Z,44.73
2018-02-04T20:02:29.147Z,45.07
2018-02-04T20:03:29.488Z,45.04
2018-02-04T20:04:29.128Z,44.52
2018-02-04T20:05:29.126Z,44.56
2018-02-04T20:06:29.132Z,45.16
2018-02-04T20:07:29.252Z,44.75
2018-02-04T20:08:29.133Z,45.28
2018-02-04T20:09:29.136Z,44.84
2018-02-04T20:10:29.131Z,45.1
2018-02-04T20:11:29.134Z,44.82
2018-02-04T20:12:29.175Z,44.82
2018-02-04T20:13:29.135Z,45.35
2018-02-04T20:14:29.137Z,44.87
2018-02-04T20:15:29.135Z,44.91
2018-02-04T20:16:29.140Z,45.3
2018-02-04T20:17:29.158Z,44.98
2018-02-04T20:18:29.143Z,45.04
2018-02-04T20:19:29.140Z,44.95
2018-02-04T20:20:29.151Z,44.84
2018-02-04T20:21:29.161Z,45.51
2018-02-04T20:22:29.165Z,44.83
2018-02-04T20:23:29.147Z,45.42
2018-02-04T20:24:29.143Z,45.23
2018-02-04T20:25:29.149Z,45.4
2018-02-04T20:26:29.146Z,45.11
2018-02-04T20:27:29.178Z,45.48
2018-02-04T20:28:29.153Z,45.48
2018-02-04T20:29:29.161Z,45.08
2018-02-04T20:30:29.150Z,45.1
2018-02-04T20:31:29.155Z,45.52
2018-02-04T20:32:29.178Z,45.55
2018-02-04T20:33:29.153Z,45.31
2018-02-04T20:34:29.152Z,45.25
2018-02-04T20:35:29.151Z,45.38
2018-02-04T20:36:29.178Z,45.66
2018-02-04T20:37:29.221Z,45.53
2018-02-04T20:38:29.155Z,45.58
2018-02-04T20:39:29.160Z,45.39
2018-02-04T20:40:29.155Z,45.29
2018-02-04T20:41:29.157Z,45.6
2018-02-04T20:42:29.181Z,45.39
2018-02-04T20:43:29.188Z,45.6
2018-02-04T20:44:29.182Z,45.34
2018-02-04T20:45:29.166Z,45.83
2018-02-04T20:46:29.170Z,45.77
2018-02-04T20:47:29.166Z,45.9
2018-02-04T20:48:29.188Z,45.44
2018-02-04T20:49:29.166Z,45.47
2018-02-04T20:50:29.166Z,45.45
2018-02-04T20:51:29.167Z,45.61
2018-02-04T20:52:29.167Z,45.69
2018-02-04T20:53:29.191Z,45.69
2018-02-04T20:54:29.169Z,45.74
2018-02-04T20:55:29.169Z,45.53
2018-02-04T20:56:29.174Z,46.02
2018-02-04T20:57:29.170Z,46.09
2018-02-04T20:58:29.199Z,45.98
2018-02-04T20:59:29.171Z,45.74
2018-02-04T21:00:29.178Z,46.05
2018-02-04T21:01:29.177Z,45.58
2018-02-04T21:02:29.183Z,45.78
2018-02-04T21:03:29.199Z,45.62
2018-02-04T21:04:29.188Z,46.21
2018-02-04T21:05:29.180Z,46.14
2018-02-04T21:06:29.185Z,46.11
2018-02-04T21:07:29.180Z,45.75
2018-02-04T21:08:29.204Z,45.94
2018-02-04T21:09:29.187Z,45.83
2018-02-04T21:10:29.184Z,46.13
2018-02-04T21:11:29.189Z,45.94
2018-02-04T21:12:29.405Z,46.3
2018-02-04T21:13:29.209Z,45.67
2018-02-04T21:14:29.185Z,45.85
2018-02-04T21:15:29.309Z,46.28
2018-02-04T21:16:29.256Z,45.96
2018-02-04T21:17:29.184Z,46.29
2018-02-04T21:18:29.213Z,46.06
2018-02-04T21:19:29.191Z,46.06
2018-02-04T21:20:29.193Z,46.44
2018-02-04T21:21:29.191Z,46.39
2018-02-04T21:22:29.190Z,46.44
2018-02-04T21:23:29.215Z,46.21
2018-02-04T21:24:29.240Z,46.23
2018-02-04T21:25:29.192Z,45.97
2018-02-04T21:26:29.195Z,46.44
2018-02-04T21:27:29.200Z,46.42
2018-02-04T21:28:29.219Z,46.01
2018-02-04T21:29:29.205Z,46.16
2018-02-04T21:30:29.198Z,46.16
2018-02-04T21:31:29.199Z,46.5
2018-02-04T21:32:29.200Z,46.13
2018-02-04T21:33:29.202Z,46.6
2018-02-04T21:34:29.202Z,46.19
2018-02-04T21:35:29.206Z,46.2
2018-02-04T21:36:29.204Z,46.57
2018-02-04T21:37:29.207Z,46.2
2018-02-04T21:38:29.202Z,46.47
2018-02-04T21:39:29.204Z,46.34
2018-02-04T21:40:29.208Z,46.24
2018-02-04T21:41:29.217Z,46.7
2018-02-04T21:42:29.206Z,46.23
2018-02-04T21:43:29.213Z,46.63
2018-02-04T21:44:29.216Z,46.32
2018-02-04T21:45:29.208Z,46.61
2018-02-04T21:46:29.211Z,46.54
2018-02-04T21:47:29.214Z,46.65
2018-02-04T21:48:29.256Z,46.31
2018-02-04T21:49:29.209Z,46.32
2018-02-04T21:50:29.214Z,46.27
2018-02-04T21:51:29.212Z,46.85
2018-02-04T21:52:29.221Z,46.73
2018-02-04T21:53:29.220Z,46.37
2018-02-04T21:54:29.216Z,46.26
2018-02-04T21:55:29.216Z,46.74
2018-02-04T21:56:29.221Z,46.2
2018-02-04T21:57:29.230Z,46.33
2018-02-04T21:58:29.226Z,46.74
2018-02-04T21:59:29.227Z,46.79
2018-02-04T22:00:29.223Z,46.45
2018-02-04T22:01:29.225Z,46.5
2018-02-04T22:02:29.224Z,46.4
2018-02-04T22:03:29.228Z,46.76
2018-02-04T22:04:29.228Z,46.42
2018-02-04T22:05:29.226Z,46.45
2018-02-04T22:06:29.233Z,46.76
2018-02-04T22:07:29.230Z,46.48
2018-02-04T22:08:29.254Z,46.81
2018-02-04T22:09:29.229Z,46.57
2018-02-04T22:10:29.229Z,46.43
2018-02-04T22:11:29.232Z,46.83
2018-02-04T22:12:29.233Z,46.88
2018-02-04T22:13:29.262Z,46.63
2018-02-04T22:14:29.235Z,46.92
2018-02-04T22:15:29.235Z,46.41
2018-02-04T22:16:29.236Z,46.81
2018-02-04T22:17:29.237Z,46.46
2018-02-04T22:18:29.262Z,47.17
2018-02-04T22:19:29.237Z,46.97
2018-02-04T22:20:29.240Z,46.7
2018-02-04T22:21:29.244Z,46.98
2018-02-04T22:22:29.239Z,46.91